createdAt,value
2017-09-26T00:01:31.305Z,9.77
2017-09-26T00:04:07.401Z,8.68
2017-09-26T00:06:38.236Z,9.20
2017-09-26T00:11:41.580Z,9.57
2017-09-26T00:14:13.115Z,8.27
2017-09-26T00:16:42.733Z,8.95
2017-09-26T00:19:12.040Z,9.35
2017-09-26T00:21:43.179Z,9.68
2017-09-26T00:24:12.993Z,8.60
2017-09-26T00:26:41.402Z,8.85
2017-09-26T00:29:09.651Z,8.98
2017-09-26T00:31:37.900Z,8.55
2017-09-26T00:34:06.197Z,9.27
2017-09-26T00:36:35.244Z,9.70
2017-09-26T00:39:05.116Z,9.32
2017-09-26T00:41:33.471Z,8.80
2017-09-26T00:44:02.476Z,9.75
2017-09-26T00:46:31.613Z,8.65
2017-09-26T00:48:59.899Z,10.15
2017-09-26T00:51:28.164Z,9.05
2017-09-26T00:53:57.421Z,9.90
2017-09-26T00:56:26.457Z,9.55
2017-09-26T00:58:54.744Z,9.30
2017-09-26T01:01:23.037Z,10.25
2017-09-26T01:03:57.487Z,7.97
2017-09-26T01:06:26.387Z,9.20
2017-09-26T01:08:54.669Z,9.68
2017-09-26T01:11:22.975Z,9.48
2017-09-26T01:13:51.253Z,9.07
2017-09-26T01:16:21.618Z,9.63
2017-09-26T01:18:50.014Z,9.40
2017-09-26T01:21:18.431Z,9.05
2017-09-26T01:23:46.847Z,9.93
2017-09-26T01:26:17.785Z,9.32
2017-09-26T01:28:47.005Z,10.88
2017-09-26T01:31:15.408Z,13.62
2017-09-26T01:33:43.773Z,9.60
2017-09-26T01:36:12.967Z,8.65
2017-09-26T01:38:41.182Z,8.80
2017-09-26T01:41:21.289Z,9.45
2017-09-26T01:43:49.592Z,9.07
2017-09-26T01:46:17.843Z,9.20
2017-09-26T01:48:46.099Z,9.00
2017-09-26T01:51:15.837Z,9.38
2017-09-26T01:53:45.310Z,9.60
2017-09-26T01:56:23.519Z,9.10
2017-09-26T01:58:53.013Z,9.50
2017-09-26T02:01:22.397Z,8.68
2017-09-26T02:03:50.892Z,9.50
2017-09-26T02:06:19.192Z,9.32
2017-09-26T02:08:47.465Z,10.40
2017-09-26T02:11:15.861Z,10.20
2017-09-26T02:13:44.109Z,10.05
2017-09-26T02:16:13.144Z,9.38
2017-09-26T02:18:42.536Z,9.70
2017-09-26T02:21:11.646Z,8.77
2017-09-26T02:23:40.609Z,10.95
2017-09-26T02:26:08.932Z,10.00
2017-09-26T02:28:37.252Z,9.88
2017-09-26T02:31:05.505Z,8.95
2017-09-26T02:33:33.747Z,9.05
2017-09-26T02:36:02.467Z,9.95
2017-09-26T02:38:31.424Z,9.52
2017-09-26T02:40:59.661Z,10.25
2017-09-26T02:43:27.904Z,10.40
2017-09-26T02:45:56.144Z,10.18
2017-09-26T02:48:24.345Z,10.00
2017-09-26T02:50:52.556Z,9.95
2017-09-26T02:53:21.178Z,10.35
2017-09-26T02:55:49.358Z,10.88
2017-09-26T02:58:17.562Z,10.57
2017-09-26T03:00:46.907Z,10.55
2017-09-26T03:03:15.127Z,10.13
2017-09-26T03:05:43.345Z,10.70
2017-09-26T03:08:11.909Z,11.02
2017-09-26T03:10:40.911Z,10.02
2017-09-26T03:13:09.193Z,10.27
2017-09-26T03:15:37.428Z,11.00
2017-09-26T03:18:05.626Z,10.55
2017-09-26T03:20:34.574Z,10.82
2017-09-26T03:23:02.786Z,11.18
2017-09-26T03:25:32.847Z,10.60
2017-09-26T03:28:01.099Z,11.18
2017-09-26T03:30:29.392Z,10.65
2017-09-26T03:32:57.623Z,11.45
2017-09-26T03:35:26.632Z,11.38
2017-09-26T03:37:54.978Z,11.55
2017-09-26T03:40:23.945Z,12.50
2017-09-26T03:42:52.185Z,11.70
2017-09-26T03:45:20.443Z,14.52
2017-09-26T03:47:48.734Z,11.55
2017-09-26T03:50:17.018Z,12.00
2017-09-26T03:52:45.627Z,12.73
2017-09-26T03:55:13.830Z,13.95
2017-09-26T03:57:42.850Z,12.68
2017-09-26T04:00:11.125Z,13.23
2017-09-26T04:02:39.347Z,13.15
2017-09-26T04:05:07.618Z,13.27
2017-09-26T04:07:35.840Z,12.90
2017-09-26T04:10:04.411Z,12.95
2017-09-26T04:12:33.373Z,12.60
2017-09-26T04:15:01.584Z,13.75
2017-09-26T04:17:30.601Z,11.25
2017-09-26T04:19:58.818Z,13.60
2017-09-26T04:22:27.843Z,11.52
2017-09-26T04:24:56.071Z,12.30
2017-09-26T04:27:24.757Z,14.18
2017-09-26T04:29:52.983Z,11.68
2017-09-26T04:32:21.236Z,12.37
2017-09-26T04:34:50.257Z,13.30
2017-09-26T04:37:18.504Z,12.18
2017-09-26T04:39:47.523Z,13.40
2017-09-26T04:42:15.775Z,13.00
2017-09-26T04:44:44.776Z,13.05
2017-09-26T04:47:12.988Z,13.15
2017-09-26T04:49:41.221Z,15.38
2017-09-26T04:52:09.468Z,14.50
2017-09-26T04:54:38.784Z,15.00
2017-09-26T04:57:07.810Z,13.77
2017-09-26T04:59:36.142Z,13.80
2017-09-26T05:02:04.356Z,13.70
2017-09-26T05:04:32.575Z,15.18
2017-09-26T05:07:00.820Z,13.90
2017-09-26T05:09:29.531Z,14.00
2017-09-26T05:11:57.803Z,13.73
2017-09-26T05:14:26.041Z,12.50
2017-09-26T05:16:54.255Z,14.43
2017-09-26T05:19:22.506Z,14.38
2017-09-26T05:21:51.223Z,14.30
2017-09-26T05:24:19.506Z,14.77
2017-09-26T05:26:47.748Z,14.32
2017-09-26T05:29:15.989Z,14.20
2017-09-26T05:31:44.963Z,16.67
2017-09-26T05:34:14.284Z,15.13
2017-09-26T05:36:42.647Z,15.23
2017-09-26T05:39:11.680Z,15.20
2017-09-26T05:41:39.967Z,15.40
2017-09-26T05:44:08.224Z,17.65
2017-09-26T05:46:36.457Z,16.30
2017-09-26T05:49:04.667Z,15.75
2017-09-26T05:51:32.877Z,15.95
2017-09-26T05:54:01.155Z,16.30
2017-09-26T05:56:29.405Z,14.38
2017-09-26T05:58:57.703Z,16.10
2017-09-26T06:01:26.383Z,16.55
2017-09-26T06:03:54.592Z,16.02
2017-09-26T06:06:22.821Z,15.98
2017-09-26T06:08:51.032Z,17.42
2017-09-26T06:11:19.251Z,17.17
2017-09-26T06:13:47.448Z,17.02
2017-09-26T06:16:15.634Z,17.27
2017-09-26T06:18:44.296Z,16.80
2017-09-26T06:21:12.491Z,16.85
2017-09-26T06:23:40.717Z,16.42
2017-09-26T06:26:08.911Z,17.00
2017-09-26T06:28:37.356Z,16.60
2017-09-26T06:31:06.338Z,17.95
2017-09-26T06:33:38.029Z,17.25
2017-09-26T06:36:06.303Z,16.60
2017-09-26T06:38:34.517Z,17.48
2017-09-26T06:41:02.720Z,18.05
2017-09-26T06:43:31.712Z,17.58
2017-09-26T06:46:00.703Z,17.77
2017-09-26T06:48:29.695Z,18.35
2017-09-26T06:50:57.948Z,18.80
2017-09-26T06:53:26.246Z,18.02
2017-09-26T06:55:55.261Z,18.77
2017-09-26T06:58:24.230Z,20.08
2017-09-26T07:00:53.220Z,16.65
2017-09-26T07:03:21.530Z,20.15
2017-09-26T07:05:49.736Z,18.30
2017-09-26T07:08:18.005Z,19.73
2017-09-26T07:10:48.873Z,19.35
2017-09-26T07:13:18.002Z,18.75
2017-09-26T07:15:46.273Z,19.52
2017-09-26T07:18:14.498Z,19.25
2017-09-26T07:20:42.789Z,18.90
2017-09-26T07:23:11.040Z,19.58
2017-09-26T07:25:39.286Z,19.85
2017-09-26T07:28:07.603Z,19.90
2017-09-26T07:30:35.854Z,20.02
2017-09-26T07:33:04.102Z,21.33
2017-09-26T07:35:32.380Z,20.75
2017-09-26T07:38:00.664Z,19.45
2017-09-26T07:40:29.211Z,21.33
2017-09-26T07:42:57.430Z,19.10
2017-09-26T07:45:25.681Z,21.27
2017-09-26T07:47:53.921Z,20.73
2017-09-26T07:50:22.907Z,21.35
2017-09-26T07:52:51.928Z,21.80
2017-09-26T07:55:20.243Z,22.17
2017-09-26T07:57:48.960Z,19.92
2017-09-26T08:00:17.236Z,22.08
2017-09-26T08:02:46.247Z,22.10
2017-09-26T08:05:15.685Z,22.35
2017-09-26T08:07:44.248Z,21.40
2017-09-26T08:10:12.466Z,21.77
2017-09-26T08:12:40.666Z,20.67
2017-09-26T08:15:09.654Z,20.70
2017-09-26T08:17:37.839Z,21.75
2017-09-26T08:20:06.820Z,21.48
2017-09-26T08:22:35.026Z,22.17
2017-09-26T08:25:03.579Z,22.58
2017-09-26T08:27:31.771Z,23.60
2017-09-26T08:30:00.739Z,22.20
2017-09-26T08:32:28.956Z,23.62
2017-09-26T08:34:57.174Z,22.83
2017-09-26T08:37:25.849Z,21.62
2017-09-26T08:39:54.067Z,24.02
2017-09-26T08:42:23.023Z,22.50
2017-09-26T08:44:51.282Z,22.58
2017-09-26T08:47:19.477Z,22.85
2017-09-26T08:49:47.737Z,23.05
2017-09-26T08:52:15.974Z,24.98
2017-09-26T08:54:44.163Z,24.87
2017-09-26T08:57:12.408Z,23.67
2017-09-26T08:59:41.534Z,24.92
2017-09-26T09:02:09.756Z,23.12
2017-09-26T09:04:37.976Z,23.10
2017-09-26T09:07:06.240Z,23.87
2017-09-26T09:09:34.441Z,22.95
2017-09-26T09:12:02.644Z,24.15
2017-09-26T09:14:30.829Z,22.87
2017-09-26T09:16:59.040Z,23.40
2017-09-26T09:19:27.231Z,22.25
2017-09-26T09:21:55.443Z,22.75
2017-09-26T09:24:23.670Z,23.33
2017-09-26T09:26:51.953Z,23.33
2017-09-26T09:29:20.235Z,25.08
2017-09-26T09:31:48.418Z,23.92
2017-09-26T09:34:16.677Z,23.98
2017-09-26T09:36:44.878Z,23.50
2017-09-26T09:39:13.122Z,21.33
2017-09-26T09:41:41.350Z,26.42
2017-09-26T09:44:10.306Z,25.45
2017-09-26T09:46:38.483Z,25.05
2017-09-26T09:49:06.762Z,23.17
2017-09-26T09:51:35.019Z,22.08
2017-09-26T09:54:03.216Z,25.08
2017-09-26T09:56:31.424Z,25.27
2017-09-26T09:59:00.409Z,24.85
2017-09-26T10:01:29.417Z,25.20
2017-09-26T10:03:57.643Z,24.15
2017-09-26T10:06:25.892Z,24.17
2017-09-26T10:08:54.191Z,23.85
2017-09-26T10:11:22.530Z,23.75
2017-09-26T10:13:50.757Z,25.70
2017-09-26T10:16:19.003Z,24.80
2017-09-26T10:18:47.284Z,23.38
2017-09-26T10:21:15.539Z,23.05
2017-09-26T10:23:43.749Z,23.48
2017-09-26T10:26:11.956Z,24.90
2017-09-26T10:28:40.223Z,23.60
2017-09-26T10:31:08.440Z,24.12
2017-09-26T10:33:36.675Z,23.33
2017-09-26T10:36:04.904Z,24.63
2017-09-26T10:41:14.837Z,24.87
2017-09-26T10:43:43.816Z,22.98
2017-09-26T10:46:12.026Z,23.05
2017-09-26T10:48:40.284Z,25.40
2017-09-26T10:51:08.551Z,24.75
2017-09-26T10:53:36.840Z,23.73
2017-09-26T10:56:05.094Z,27.33
2017-09-26T10:58:33.368Z,24.80
2017-09-26T11:01:01.665Z,24.42
2017-09-26T11:03:29.917Z,24.00
2017-09-26T11:05:58.160Z,23.10
2017-09-26T11:08:26.424Z,23.27
2017-09-26T11:10:55.107Z,25.45
2017-09-26T11:13:24.165Z,25.20
2017-09-26T11:15:52.438Z,23.40
2017-09-26T11:18:21.489Z,25.08
2017-09-26T11:20:51.040Z,22.92
2017-09-26T11:23:19.323Z,24.17
2017-09-26T11:25:47.576Z,26.08
2017-09-26T11:28:15.809Z,24.30
2017-09-26T11:30:44.859Z,26.00
2017-09-26T11:33:13.072Z,24.23
2017-09-26T11:35:41.343Z,24.45
2017-09-26T11:38:09.601Z,23.70
2017-09-26T11:40:37.883Z,24.77
2017-09-26T11:43:06.094Z,24.92
2017-09-26T11:45:35.108Z,27.52
2017-09-26T11:48:03.374Z,24.25
2017-09-26T11:50:31.687Z,26.08
2017-09-26T11:52:59.906Z,27.70
2017-09-26T11:55:28.958Z,24.05
2017-09-26T11:57:57.224Z,24.55
2017-09-26T12:00:25.441Z,27.20
2017-09-26T12:02:53.695Z,26.20
2017-09-26T12:05:22.015Z,23.48
2017-09-26T12:07:50.245Z,25.95
2017-09-26T12:10:18.502Z,25.27
2017-09-26T12:12:52.352Z,24.37
2017-09-26T12:15:20.607Z,22.98
2017-09-26T12:17:48.859Z,25.25
2017-09-26T12:20:17.142Z,25.23
2017-09-26T12:22:45.577Z,24.95
2017-09-26T12:25:13.868Z,23.87
2017-09-26T12:27:42.149Z,24.87
2017-09-26T12:30:10.618Z,21.80
2017-09-26T12:32:38.949Z,22.62
2017-09-26T12:35:07.222Z,23.33
2017-09-26T12:37:35.536Z,23.98
2017-09-26T12:40:03.785Z,22.60
2017-09-26T12:42:32.795Z,23.10
2017-09-26T12:45:01.052Z,22.85
2017-09-26T12:47:30.132Z,24.30
2017-09-26T12:49:58.421Z,22.48
2017-09-26T12:52:26.720Z,23.35
2017-09-26T12:54:55.034Z,23.25
2017-09-26T12:57:23.277Z,22.00
2017-09-26T12:59:51.546Z,22.90
2017-09-26T13:02:20.732Z,21.83
2017-09-26T13:04:49.049Z,24.85
2017-09-26T13:07:17.329Z,22.42
2017-09-26T13:09:45.600Z,22.05
2017-09-26T13:12:13.861Z,22.17
2017-09-26T13:14:42.106Z,21.40
2017-09-26T13:17:11.168Z,21.73
2017-09-26T13:19:39.368Z,21.65
2017-09-26T13:22:08.383Z,21.48
2017-09-26T13:24:36.610Z,23.23
2017-09-26T13:27:04.930Z,20.95
2017-09-26T13:29:33.172Z,22.52
2017-09-26T13:32:01.439Z,21.85
2017-09-26T13:34:29.704Z,21.25
2017-09-26T13:36:57.944Z,21.80
2017-09-26T13:39:26.288Z,22.13
2017-09-26T13:41:55.360Z,21.27
2017-09-26T13:44:23.715Z,22.02
2017-09-26T13:46:51.970Z,21.33
2017-09-26T13:49:20.238Z,20.33
2017-09-26T13:51:48.532Z,19.83
2017-09-26T13:54:16.793Z,21.33
2017-09-26T13:56:45.018Z,20.10
2017-09-26T13:59:13.223Z,22.55
2017-09-26T14:01:41.469Z,22.75
2017-09-26T14:04:09.738Z,21.42
2017-09-26T14:06:37.951Z,22.45
2017-09-26T14:09:06.180Z,21.65
2017-09-26T14:11:35.249Z,22.40
2017-09-26T14:14:03.577Z,22.90
2017-09-26T14:16:32.732Z,22.73
2017-09-26T14:19:01.153Z,21.95
2017-09-26T14:21:30.160Z,22.02
2017-09-26T14:23:58.442Z,21.58
2017-09-26T14:26:27.685Z,22.40
2017-09-26T14:28:56.072Z,21.90
2017-09-26T14:31:24.375Z,22.58
2017-09-26T14:33:54.494Z,22.70
2017-09-26T14:36:23.252Z,21.60
2017-09-26T14:38:52.523Z,21.90
2017-09-26T14:41:20.920Z,21.40
2017-09-26T14:43:50.001Z,23.27
2017-09-26T14:46:23.126Z,20.55
2017-09-26T14:48:51.481Z,20.27
2017-09-26T14:51:20.522Z,19.80
2017-09-26T14:53:49.363Z,20.50
2017-09-26T14:56:18.447Z,19.55
2017-09-26T14:58:46.919Z,20.27
2017-09-26T15:01:15.194Z,22.05
2017-09-26T15:03:43.476Z,21.45
2017-09-26T15:06:11.757Z,20.77
2017-09-26T15:08:48.087Z,23.00
2017-09-26T15:11:16.918Z,20.48
2017-09-26T15:13:47.866Z,22.25
2017-09-26T15:16:19.478Z,21.20
2017-09-26T15:18:48.534Z,20.27
2017-09-26T15:21:18.690Z,21.80
2017-09-26T15:23:46.993Z,21.90
2017-09-26T15:26:15.194Z,23.02
2017-09-26T15:28:46.365Z,22.67
2017-09-26T15:31:14.759Z,20.52
2017-09-26T15:33:47.506Z,20.80
2017-09-26T15:36:16.523Z,20.17
2017-09-26T15:38:44.885Z,20.20
2017-09-26T15:41:13.232Z,20.65
2017-09-26T15:43:50.283Z,19.27
2017-09-26T15:46:18.627Z,20.77
2017-09-26T15:48:46.958Z,20.85
2017-09-26T15:51:21.347Z,20.75
2017-09-26T15:53:52.287Z,22.33
2017-09-26T15:56:20.640Z,20.30
2017-09-26T15:58:48.956Z,20.58
2017-09-26T16:01:17.266Z,22.62
2017-09-26T16:03:46.589Z,22.62
2017-09-26T16:06:14.879Z,24.10
2017-09-26T16:08:43.139Z,24.92
2017-09-26T16:11:11.388Z,20.50
2017-09-26T16:13:39.663Z,24.77
2017-09-26T16:16:13.129Z,23.48
2017-09-26T16:18:46.221Z,23.17
2017-09-26T16:21:19.730Z,21.00
2017-09-26T16:23:50.098Z,22.17
2017-09-26T16:26:21.899Z,29.52
2017-09-26T16:28:50.410Z,22.27
2017-09-26T16:33:55.674Z,23.35
2017-09-26T16:36:24.029Z,27.02
2017-09-26T16:38:52.249Z,24.90
2017-09-26T16:41:20.524Z,22.58
2017-09-26T16:43:49.656Z,24.70
2017-09-26T16:46:17.886Z,24.75
2017-09-26T16:48:46.127Z,22.85
2017-09-26T16:51:14.382Z,24.48
2017-09-26T16:53:42.636Z,23.45
2017-09-26T16:56:10.870Z,24.23
2017-09-26T16:58:39.859Z,23.10
2017-09-26T17:01:08.916Z,21.90
2017-09-26T17:03:37.503Z,24.12
2017-09-26T17:06:05.748Z,23.45
2017-09-26T17:08:33.958Z,25.05
2017-09-26T17:11:02.230Z,24.17
2017-09-26T17:13:30.499Z,23.42
2017-09-26T17:15:58.741Z,22.13
2017-09-26T17:18:26.978Z,23.75
2017-09-26T17:20:56.014Z,22.23
2017-09-26T17:23:24.313Z,24.67
2017-09-26T17:25:52.574Z,22.77
2017-09-26T17:28:22.056Z,22.98
2017-09-26T17:30:50.327Z,24.52
2017-09-26T17:33:18.625Z,24.45
2017-09-26T17:35:46.888Z,23.12
2017-09-26T17:38:15.245Z,23.02
2017-09-26T17:40:44.314Z,26.45
2017-09-26T17:43:12.528Z,24.40
2017-09-26T17:45:40.764Z,22.90
2017-09-26T17:48:09.038Z,22.77
2017-09-26T17:50:37.344Z,23.55
2017-09-26T17:53:05.761Z,23.05
2017-09-26T17:55:34.034Z,23.00
2017-09-26T17:58:02.268Z,22.40
2017-09-26T18:00:30.516Z,21.02
2017-09-26T18:02:58.762Z,23.75
2017-09-26T18:05:27.107Z,21.65
2017-09-26T18:07:55.434Z,24.75
2017-09-26T18:10:24.210Z,23.92
2017-09-26T18:12:52.648Z,20.55
2017-09-26T18:15:20.987Z,22.35
2017-09-26T18:17:49.271Z,23.83
2017-09-26T18:20:17.523Z,24.17
2017-09-26T18:22:45.805Z,22.67
2017-09-26T18:25:14.042Z,22.02
2017-09-26T18:27:42.295Z,21.50
2017-09-26T18:30:10.548Z,20.73
2017-09-26T18:32:38.800Z,21.00
2017-09-26T18:35:07.055Z,22.02
2017-09-26T18:37:35.391Z,23.42
2017-09-26T18:40:04.396Z,22.80
2017-09-26T18:42:32.617Z,21.73
2017-09-26T18:45:00.889Z,24.00
2017-09-26T18:47:29.176Z,24.12
2017-09-26T18:49:57.456Z,22.67
2017-09-26T18:52:25.871Z,23.27
2017-09-26T18:54:54.175Z,20.83
2017-09-26T18:57:22.563Z,23.70
2017-09-26T18:59:50.917Z,21.77
2017-09-26T19:02:19.243Z,22.13
2017-09-26T19:04:47.595Z,21.73
2017-09-26T19:07:15.954Z,21.62
2017-09-26T19:09:49.008Z,23.50
2017-09-26T19:12:19.053Z,22.13
2017-09-26T19:14:47.597Z,21.58
2017-09-26T19:17:16.053Z,22.27
2017-09-26T19:19:45.201Z,21.30
2017-09-26T19:22:14.459Z,23.40
2017-09-26T19:24:42.791Z,22.80
2017-09-26T19:27:11.758Z,21.35
2017-09-26T19:29:43.645Z,22.67
2017-09-26T19:32:12.748Z,23.87
2017-09-26T19:34:41.021Z,23.00
2017-09-26T19:37:09.261Z,23.60
2017-09-26T19:39:37.577Z,22.25
2017-09-26T19:42:06.016Z,21.45
2017-09-26T19:44:34.251Z,20.27
2017-09-26T19:47:02.544Z,21.27
2017-09-26T19:49:33.608Z,24.63
2017-09-26T19:52:03.030Z,25.55
2017-09-26T19:54:32.286Z,23.48
2017-09-26T19:57:01.430Z,24.73
2017-09-26T19:59:29.688Z,22.48
2017-09-26T20:01:58.103Z,22.75
2017-09-26T20:04:26.418Z,23.55
2017-09-26T20:06:55.396Z,25.30
2017-09-26T20:09:23.649Z,24.25
2017-09-26T20:11:51.988Z,22.85
2017-09-26T20:14:20.611Z,21.92
2017-09-26T20:16:48.947Z,23.35
2017-09-26T20:19:17.219Z,23.87
2017-09-26T20:21:45.519Z,26.52
2017-09-26T20:24:13.897Z,24.50
2017-09-26T20:26:42.283Z,24.80
2017-09-26T20:29:10.538Z,24.75
2017-09-26T20:31:38.816Z,23.52
2017-09-26T20:34:07.101Z,25.70
2017-09-26T20:36:35.399Z,24.15
2017-09-26T20:39:03.625Z,23.05
2017-09-26T20:41:31.892Z,25.17
2017-09-26T20:44:00.134Z,26.77
2017-09-26T20:46:28.390Z,24.23
2017-09-26T20:49:05.482Z,23.73
2017-09-26T20:51:33.721Z,23.48
2017-09-26T20:54:01.955Z,23.65
2017-09-26T20:56:32.075Z,24.70
2017-09-26T20:59:00.277Z,25.80
2017-09-26T21:01:28.590Z,23.38
2017-09-26T21:03:56.870Z,25.50
2017-09-26T21:06:25.129Z,22.48
2017-09-26T21:08:53.480Z,24.65
2017-09-26T21:11:22.113Z,22.95
2017-09-26T21:13:50.436Z,24.67
2017-09-26T21:16:18.655Z,25.15
2017-09-26T21:18:47.228Z,24.42
2017-09-26T21:21:15.438Z,26.08
2017-09-26T21:23:43.648Z,26.98
2017-09-26T21:26:11.936Z,23.70
2017-09-26T21:28:40.204Z,23.35
2017-09-26T21:31:08.484Z,24.87
2017-09-26T21:33:37.480Z,24.63
2017-09-26T21:36:06.485Z,26.23
2017-09-26T21:38:34.715Z,24.05
2017-09-26T21:41:04.430Z,23.58
2017-09-26T21:46:07.567Z,25.65
2017-09-26T21:48:35.796Z,25.48
2017-09-26T21:51:05.601Z,25.30
2017-09-26T21:53:34.851Z,25.65
2017-09-26T21:56:03.226Z,26.55
2017-09-26T21:58:31.481Z,28.17
2017-09-26T22:01:00.771Z,27.30
2017-09-26T22:03:29.058Z,26.77
2017-09-26T22:05:57.277Z,26.10
2017-09-26T22:08:25.515Z,27.35
2017-09-26T22:10:53.752Z,25.08
2017-09-26T22:13:22.067Z,26.58
2017-09-26T22:15:50.300Z,27.98
2017-09-26T22:18:18.544Z,24.85
2017-09-26T22:20:46.800Z,25.25
2017-09-26T22:23:15.031Z,25.00
2017-09-26T22:25:44.147Z,26.12
2017-09-26T22:28:12.389Z,26.23
2017-09-26T22:30:40.626Z,27.00
2017-09-26T22:33:08.877Z,28.08
2017-09-26T22:35:37.528Z,27.25
2017-09-26T22:38:06.615Z,27.33
2017-09-26T22:40:35.657Z,26.33
2017-09-26T22:43:03.933Z,27.65
2017-09-26T22:45:32.205Z,24.30
2017-09-26T22:48:00.485Z,28.40
2017-09-26T22:50:28.852Z,27.15
2017-09-26T22:52:57.393Z,27.98
2017-09-26T22:55:25.757Z,25.05
2017-09-26T22:57:54.322Z,27.37
2017-09-26T23:00:23.430Z,29.00
2017-09-26T23:02:52.898Z,28.27
2017-09-26T23:05:21.856Z,25.42
2017-09-26T23:07:50.167Z,25.80
2017-09-26T23:10:20.188Z,25.95
2017-09-26T23:12:48.658Z,26.50
2017-09-26T23:15:16.995Z,26.40
2017-09-26T23:17:45.303Z,26.67
2017-09-26T23:20:14.034Z,27.70
2017-09-26T23:22:43.226Z,27.48
2017-09-26T23:25:12.555Z,26.60
2017-09-26T23:27:40.940Z,26.40
2017-09-26T23:30:10.245Z,26.95
2017-09-26T23:32:39.215Z,27.83
2017-09-26T23:35:07.532Z,27.00
2017-09-26T23:37:35.898Z,26.52
2017-09-26T23:40:05.066Z,27.98
2017-09-26T23:42:33.395Z,27.62
2017-09-26T23:45:01.700Z,25.85
2017-09-26T23:47:33.021Z,26.27
2017-09-26T23:50:01.332Z,29.35
2017-09-26T23:52:30.488Z,26.58
2017-09-26T23:55:00.052Z,28.12
2017-09-26T23:57:28.452Z,27.10
2017-09-26T23:59:56.741Z,27.70
